sensor_id;sensor_type;location;lat;lon;timestamp;pressure;altitude;pressure_sealevel;temperature;humidity
71907;BME280;59781;52.090;5.030;2023-07-02T00:01:49;100651.63;;;16.86;100.00
71907;BME280;59781;52.090;5.030;2023-07-02T00:04:15;100645.69;;;17.03;100.00
71907;BME280;59781;52.090;5.030;2023-07-02T00:06:45;100649.13;;;16.85;100.00
71907;BME280;59781;52.090;5.030;2023-07-02T00:09:12;100663.22;;;16.69;100.00
71907;BME280;59781;52.090;5.030;2023-07-02T00:11:39;100654.75;;;16.90;100.00
71907;BME280;59781;52.090;5.030;2023-07-02T00:14:07;100662.16;;;16.70;100.00
71907;BME280;59781;52.090;5.030;2023-07-02T00:16:39;100662.34;;;16.81;100.00
71907;BME280;59781;52.090;5.030;2023-07-02T00:19:08;100660.00;;;16.91;100.00
71907;BME280;59781;52.090;5.030;2023-07-02T00:21:34;100659.84;;;16.67;100.00
71907;BME280;59781;52.090;5.030;2023-07-02T00:24:02;100660.47;;;16.75;100.00
71907;BME280;59781;52.090;5.030;2023-07-02T00:26:29;100658.19;;;16.66;100.00
71907;BME280;59781;52.090;5.030;2023-07-02T00:28:55;100660.69;;;16.60;100.00
71907;BME280;59781;52.090;5.030;2023-07-02T00:31:23;100666.19;;;16.54;100.00
71907;BME280;59781;52.090;5.030;2023-07-02T00:33:50;100668.13;;;16.27;100.00
71907;BME280;59781;52.090;5.030;2023-07-02T00:36:16;100652.44;;;16.35;100.00
71907;BME280;59781;52.090;5.030;2023-07-02T00:38:44;100660.84;;;16.01;100.00
71907;BME280;59781;52.090;5.030;2023-07-02T00:41:12;100666.53;;;15.93;100.00
71907;BME280;59781;52.090;5.030;2023-07-02T00:43:38;100653.75;;;16.13;100.00
71907;BME280;59781;52.090;5.030;2023-07-02T00:46:15;100654.75;;;16.25;100.00
71907;BME280;59781;52.090;5.030;2023-07-02T00:49:04;100665.03;;;16.10;100.00
71907;BME280;59781;52.090;5.030;2023-07-02T00:51:30;100678.84;;;15.89;100.00
71907;BME280;59781;52.090;5.030;2023-07-02T00:53:57;100675.28;;;15.88;100.00
71907;BME280;59781;52.090;5.030;2023-07-02T00:56:26;100671.28;;;16.11;100.00
71907;BME280;59781;52.090;5.030;2023-07-02T00:58:54;100677.59;;;15.98;100.00
71907;BME280;59781;52.090;5.030;2023-07-02T01:01:26;100680.28;;;15.71;100.00
71907;BME280;59781;52.090;5.030;2023-07-02T01:04:01;100680.94;;;15.67;100.00
71907;BME280;59781;52.090;5.030;2023-07-02T01:06:30;100681.94;;;15.59;100.00
71907;BME280;59781;52.090;5.030;2023-07-02T01:09:05;100685.28;;;15.55;100.00
71907;BME280;59781;52.090;5.030;2023-07-02T01:11:42;100687.56;;;15.38;100.00
71907;BME280;59781;52.090;5.030;2023-07-02T01:14:17;100686.94;;;15.36;100.00
71907;BME280;59781;52.090;5.030;2023-07-02T01:16:53;100684.00;;;15.31;100.00
71907;BME280;59781;52.090;5.030;2023-07-02T01:19:43;100674.56;;;15.20;100.00
71907;BME280;59781;52.090;5.030;2023-07-02T01:22:18;100682.94;;;15.25;100.00
71907;BME280;59781;52.090;5.030;2023-07-02T01:24:49;100682.50;;;15.21;100.00
71907;BME280;59781;52.090;5.030;2023-07-02T01:27:17;100682.47;;;15.08;100.00
71907;BME280;59781;52.090;5.030;2023-07-02T01:29:43;100677.47;;;15.12;100.00
71907;BME280;59781;52.090;5.030;2023-07-02T01:32:13;100680.41;;;15.10;100.00
71907;BME280;59781;52.090;5.030;2023-07-02T01:34:39;100691.63;;;15.01;100.00
71907;BME280;59781;52.090;5.030;2023-07-02T01:37:08;100689.31;;;14.91;100.00
71907;BME280;59781;52.090;5.030;2023-07-02T01:39:35;100686.59;;;14.91;100.00
71907;BME280;59781;52.090;5.030;2023-07-02T01:42:11;100692.56;;;14.67;100.00
71907;BME280;59781;52.090;5.030;2023-07-02T01:44:43;100684.72;;;14.85;100.00
71907;BME280;59781;52.090;5.030;2023-07-02T01:47:10;100686.16;;;14.87;100.00
71907;BME280;59781;52.090;5.030;2023-07-02T01:49:37;100687.72;;;14.62;100.00
71907;BME280;59781;52.090;5.030;2023-07-02T01:52:04;100701.28;;;14.34;100.00
71907;BME280;59781;52.090;5.030;2023-07-02T01:54:32;100694.34;;;14.18;100.00
71907;BME280;59781;52.090;5.030;2023-07-02T01:56:59;100701.00;;;14.22;100.00
71907;BME280;59781;52.090;5.030;2023-07-02T01:59:25;100704.19;;;14.32;100.00
71907;BME280;59781;52.090;5.030;2023-07-02T02:01:51;100694.84;;;14.35;100.00
71907;BME280;59781;52.090;5.030;2023-07-02T02:04:17;100696.00;;;14.54;100.00
71907;BME280;59781;52.090;5.030;2023-07-02T02:06:43;100693.41;;;14.74;100.00
71907;BME280;59781;52.090;5.030;2023-07-02T02:09:11;100691.34;;;14.41;100.00
71907;BME280;59781;52.090;5.030;2023-07-02T02:11:39;100694.56;;;14.51;100.00
71907;BME280;59781;52.090;5.030;2023-07-02T02:14:08;100698.44;;;14.42;100.00
71907;BME280;59781;52.090;5.030;2023-07-02T02:16:34;100701.63;;;14.18;100.00
71907;BME280;59781;52.090;5.030;2023-07-02T02:19:02;100704.41;;;13.75;100.00
71907;BME280;59781;52.090;5.030;2023-07-02T02:21:30;100717.50;;;13.71;100.00
71907;BME280;59781;52.090;5.030;2023-07-02T02:23:55;100723.88;;;13.64;100.00
71907;BME280;59781;52.090;5.030;2023-07-02T02:26:22;100716.97;;;13.83;100.00
71907;BME280;59781;52.090;5.030;2023-07-02T02:28:48;100711.94;;;13.80;100.00
71907;BME280;59781;52.090;5.030;2023-07-02T02:31:15;100718.28;;;13.93;100.00
71907;BME280;59781;52.090;5.030;2023-07-02T02:33:41;100729.78;;;13.74;100.00
71907;BME280;59781;52.090;5.030;2023-07-02T02:36:07;100725.03;;;14.04;100.00
71907;BME280;59781;52.090;5.030;2023-07-02T02:38:32;100721.13;;;13.85;100.00
71907;BME280;59781;52.090;5.030;2023-07-02T02:41:00;100724.31;;;13.89;100.00
71907;BME280;59781;52.090;5.030;2023-07-02T02:43:29;100719.44;;;14.05;100.00
71907;BME280;59781;52.090;5.030;2023-07-02T02:45:55;100725.75;;;14.13;100.00
71907;BME280;59781;52.090;5.030;2023-07-02T02:48:21;100718.94;;;14.51;100.00
71907;BME280;59781;52.090;5.030;2023-07-02T02:50:48;100727.69;;;14.25;100.00
71907;BME280;59781;52.090;5.030;2023-07-02T02:53:14;100731.63;;;14.16;100.00
71907;BME280;59781;52.090;5.030;2023-07-02T02:55:40;100732.75;;;14.28;100.00
71907;BME280;59781;52.090;5.030;2023-07-02T02:58:05;100737.19;;;14.15;100.00
71907;BME280;59781;52.090;5.030;2023-07-02T03:00:31;100742.63;;;14.15;100.00
71907;BME280;59781;52.090;5.030;2023-07-02T03:02:58;100734.47;;;14.08;100.00
71907;BME280;59781;52.090;5.030;2023-07-02T03:05:24;100740.09;;;14.06;100.00
71907;BME280;59781;52.090;5.030;2023-07-02T03:07:50;100745.56;;;13.92;100.00
71907;BME280;59781;52.090;5.030;2023-07-02T03:10:17;100744.13;;;13.96;100.00
71907;BME280;59781;52.090;5.030;2023-07-02T03:12:42;100751.59;;;13.87;100.00
71907;BME280;59781;52.090;5.030;2023-07-02T03:15:08;100744.66;;;14.06;100.00
71907;BME280;59781;52.090;5.030;2023-07-02T03:17:35;100736.34;;;14.35;100.00
71907;BME280;59781;52.090;5.030;2023-07-02T03:20:02;100742.81;;;14.13;100.00
71907;BME280;59781;52.090;5.030;2023-07-02T03:22:33;100733.38;;;14.02;100.00
71907;BME280;59781;52.090;5.030;2023-07-02T03:24:59;100737.13;;;14.01;100.00
71907;BME280;59781;52.090;5.030;2023-07-02T03:27:25;100732.28;;;14.25;100.00
71907;BME280;59781;52.090;5.030;2023-07-02T03:29:52;100739.78;;;14.23;100.00
71907;BME280;59781;52.090;5.030;2023-07-02T03:32:18;100735.03;;;14.03;100.00
71907;BME280;59781;52.090;5.030;2023-07-02T03:34:44;100730.28;;;13.84;100.00
71907;BME280;59781;52.090;5.030;2023-07-02T03:37:09;100738.22;;;13.86;100.00
71907;BME280;59781;52.090;5.030;2023-07-02T03:39:35;100739.19;;;13.99;100.00
71907;BME280;59781;52.090;5.030;2023-07-02T03:42:01;100741.97;;;14.06;100.00
71907;BME280;59781;52.090;5.030;2023-07-02T03:44:26;100740.84;;;14.00;100.00
71907;BME280;59781;52.090;5.030;2023-07-02T03:46:52;100738.81;;;13.81;100.00
71907;BME280;59781;52.090;5.030;2023-07-02T03:49:18;100744.63;;;14.27;100.00
71907;BME280;59781;52.090;5.030;2023-07-02T03:51:43;100748.69;;;14.45;100.00
71907;BME280;59781;52.090;5.030;2023-07-02T03:54:09;100750.22;;;14.26;100.00
71907;BME280;59781;52.090;5.030;2023-07-02T03:56:35;100761.44;;;14.23;100.00
71907;BME280;59781;52.090;5.030;2023-07-02T03:59:00;100752.88;;;14.19;100.00
71907;BME280;59781;52.090;5.030;2023-07-02T04:01:26;100762.44;;;13.94;100.00
71907;BME280;59781;52.090;5.030;2023-07-02T04:03:53;100763.09;;;13.96;100.00
71907;BME280;59781;52.090;5.030;2023-07-02T04:06:19;100767.25;;;14.20;100.00
71907;BME280;59781;52.090;5.030;2023-07-02T04:08:45;100774.69;;;14.39;100.00
71907;BME280;59781;52.090;5.030;2023-07-02T04:11:11;100778.25;;;14.40;100.00
71907;BME280;59781;52.090;5.030;2023-07-02T04:13:38;100771.84;;;14.19;100.00
71907;BME280;59781;52.090;5.030;2023-07-02T04:16:05;100783.28;;;13.93;100.00
71907;BME280;59781;52.090;5.030;2023-07-02T04:18:31;100770.59;;;14.22;100.00
71907;BME280;59781;52.090;5.030;2023-07-02T04:20:57;100772.25;;;14.16;100.00
71907;BME280;59781;52.090;5.030;2023-07-02T04:23:24;100780.81;;;14.20;100.00
71907;BME280;59781;52.090;5.030;2023-07-02T04:25:50;100771.03;;;14.47;100.00
71907;BME280;59781;52.090;5.030;2023-07-02T04:28:16;100776.78;;;14.37;100.00
71907;BME280;59781;52.090;5.030;2023-07-02T04:30:42;100778.41;;;14.59;100.00
71907;BME280;59781;52.090;5.030;2023-07-02T04:33:08;100783.66;;;14.40;100.00
71907;BME280;59781;52.090;5.030;2023-07-02T04:35:34;100781.03;;;14.46;100.00
71907;BME280;59781;52.090;5.030;2023-07-02T04:38:00;100787.84;;;14.42;100.00
71907;BME280;59781;52.090;5.030;2023-07-02T04:40:26;100785.97;;;14.43;100.00
71907;BME280;59781;52.090;5.030;2023-07-02T04:42:52;100782.59;;;14.62;100.00
71907;BME280;59781;52.090;5.030;2023-07-02T04:45:24;100780.97;;;14.68;100.00
71907;BME280;59781;52.090;5.030;2023-07-02T04:47:52;100778.03;;;15.10;100.00
71907;BME280;59781;52.090;5.030;2023-07-02T04:50:18;100780.34;;;15.13;100.00
71907;BME280;59781;52.090;5.030;2023-07-02T04:52:44;100789.69;;;15.04;100.00
71907;BME280;59781;52.090;5.030;2023-07-02T04:55:10;100799.19;;;15.28;100.00
71907;BME280;59781;52.090;5.030;2023-07-02T04:57:37;100800.91;;;15.42;100.00
71907;BME280;59781;52.090;5.030;2023-07-02T05:00:04;100798.47;;;15.54;100.00
71907;BME280;59781;52.090;5.030;2023-07-02T05:02:31;100791.00;;;15.69;100.00
71907;BME280;59781;52.090;5.030;2023-07-02T05:04:57;100789.13;;;15.63;100.00
71907;BME280;59781;52.090;5.030;2023-07-02T05:07:23;100798.13;;;15.77;100.00
71907;BME280;59781;52.090;5.030;2023-07-02T05:09:49;100792.47;;;15.78;100.00
71907;BME280;59781;52.090;5.030;2023-07-02T05:12:17;100789.78;;;16.25;100.00
71907;BME280;59781;52.090;5.030;2023-07-02T05:14:42;100789.16;;;16.29;100.00
71907;BME280;59781;52.090;5.030;2023-07-02T05:17:08;100791.25;;;16.14;100.00
71907;BME280;59781;52.090;5.030;2023-07-02T05:19:34;100788.75;;;16.19;100.00
71907;BME280;59781;52.090;5.030;2023-07-02T05:21:59;100794.97;;;16.66;100.00
71907;BME280;59781;52.090;5.030;2023-07-02T05:24:25;100794.34;;;16.57;100.00
71907;BME280;59781;52.090;5.030;2023-07-02T05:26:51;100804.19;;;16.58;100.00
71907;BME280;59781;52.090;5.030;2023-07-02T05:29:16;100801.00;;;17.01;100.00
71907;BME280;59781;52.090;5.030;2023-07-02T05:31:42;100799.69;;;17.10;100.00
71907;BME280;59781;52.090;5.030;2023-07-02T05:34:08;100809.94;;;17.08;100.00
71907;BME280;59781;52.090;5.030;2023-07-02T05:36:34;100803.94;;;17.51;100.00
71907;BME280;59781;52.090;5.030;2023-07-02T05:39:00;100801.00;;;17.91;100.00
71907;BME280;59781;52.090;5.030;2023-07-02T05:41:26;100813.06;;;18.01;100.00
71907;BME280;59781;52.090;5.030;2023-07-02T05:43:59;100814.72;;;18.27;100.00
71907;BME280;59781;52.090;5.030;2023-07-02T05:46:26;100809.22;;;18.59;100.00
71907;BME280;59781;52.090;5.030;2023-07-02T05:48:51;100816.91;;;18.19;100.00
71907;BME280;59781;52.090;5.030;2023-07-02T05:51:21;100810.03;;;18.84;100.00
71907;BME280;59781;52.090;5.030;2023-07-02T05:53:47;100823.56;;;18.98;100.00
71907;BME280;59781;52.090;5.030;2023-07-02T05:56:13;100824.66;;;18.22;100.00
71907;BME280;59781;52.090;5.030;2023-07-02T05:58:39;100829.03;;;18.48;100.00
71907;BME280;59781;52.090;5.030;2023-07-02T06:01:05;100834.38;;;18.36;100.00
71907;BME280;59781;52.090;5.030;2023-07-02T06:03:32;100833.72;;;19.27;100.00
71907;BME280;59781;52.090;5.030;2023-07-02T06:05:58;100819.66;;;19.05;100.00
71907;BME280;59781;52.090;5.030;2023-07-02T06:08:24;100830.28;;;18.52;100.00
71907;BME280;59781;52.090;5.030;2023-07-02T06:10:50;100846.06;;;17.87;100.00
71907;BME280;59781;52.090;5.030;2023-07-02T06:13:15;100847.63;;;17.69;100.00
71907;BME280;59781;52.090;5.030;2023-07-02T06:15:42;100836.75;;;17.63;100.00
71907;BME280;59781;52.090;5.030;2023-07-02T06:18:09;100838.34;;;17.32;100.00
71907;BME280;59781;52.090;5.030;2023-07-02T06:20:34;100845.03;;;17.36;100.00
71907;BME280;59781;52.090;5.030;2023-07-02T06:23:00;100839.50;;;17.49;100.00
71907;BME280;59781;52.090;5.030;2023-07-02T06:25:26;100844.78;;;17.51;100.00
71907;BME280;59781;52.090;5.030;2023-07-02T06:27:52;100844.34;;;18.74;100.00
71907;BME280;59781;52.090;5.030;2023-07-02T06:30:24;100840.53;;;19.18;100.00
71907;BME280;59781;52.090;5.030;2023-07-02T06:32:50;100837.72;;;18.88;100.00
71907;BME280;59781;52.090;5.030;2023-07-02T06:35:16;100846.19;;;19.53;100.00
71907;BME280;59781;52.090;5.030;2023-07-02T06:37:42;100845.94;;;19.55;100.00
71907;BME280;59781;52.090;5.030;2023-07-02T06:40:08;100851.91;;;19.33;100.00
71907;BME280;59781;52.090;5.030;2023-07-02T06:42:34;100853.63;;;18.91;100.00
71907;BME280;59781;52.090;5.030;2023-07-02T06:45:02;100859.81;;;19.60;100.00
71907;BME280;59781;52.090;5.030;2023-07-02T06:47:28;100857.59;;;19.68;100.00
71907;BME280;59781;52.090;5.030;2023-07-02T06:49:54;100859.41;;;20.46;100.00
71907;BME280;59781;52.090;5.030;2023-07-02T06:52:20;100861.41;;;20.51;100.00
71907;BME280;59781;52.090;5.030;2023-07-02T06:54:45;100867.97;;;21.08;97.67
71907;BME280;59781;52.090;5.030;2023-07-02T06:57:13;100867.38;;;20.48;96.64
71907;BME280;59781;52.090;5.030;2023-07-02T06:59:39;100866.81;;;20.27;99.01
71907;BME280;59781;52.090;5.030;2023-07-02T07:02:04;100872.50;;;20.91;95.95
71907;BME280;59781;52.090;5.030;2023-07-02T07:04:30;100882.97;;;20.94;99.64
71907;BME280;59781;52.090;5.030;2023-07-02T07:06:56;100880.66;;;19.17;100.00
71907;BME280;59781;52.090;5.030;2023-07-02T07:09:22;100886.72;;;19.56;100.00
71907;BME280;59781;52.090;5.030;2023-07-02T07:11:47;100878.22;;;20.24;96.97
71907;BME280;59781;52.090;5.030;2023-07-02T07:14:13;100886.06;;;21.33;93.53
71907;BME280;59781;52.090;5.030;2023-07-02T07:16:40;100888.19;;;21.19;88.46
71907;BME280;59781;52.090;5.030;2023-07-02T07:19:08;100896.72;;;21.58;89.11
71907;BME280;59781;52.090;5.030;2023-07-02T07:21:34;100896.38;;;21.94;87.79
71907;BME280;59781;52.090;5.030;2023-07-02T07:24:00;100906.63;;;21.59;87.38
71907;BME280;59781;52.090;5.030;2023-07-02T07:26:26;100902.72;;;22.23;83.68
71907;BME280;59781;52.090;5.030;2023-07-02T07:28:51;100913.91;;;21.93;79.24
71907;BME280;59781;52.090;5.030;2023-07-02T07:31:19;100903.25;;;22.09;80.09
71907;BME280;59781;52.090;5.030;2023-07-02T07:33:45;100916.28;;;22.47;80.76
71907;BME280;59781;52.090;5.030;2023-07-02T07:36:11;100911.13;;;22.50;84.32
71907;BME280;59781;52.090;5.030;2023-07-02T07:38:36;100921.53;;;21.91;84.43
71907;BME280;59781;52.090;5.030;2023-07-02T07:41:02;100915.66;;;21.59;79.27
71907;BME280;59781;52.090;5.030;2023-07-02T07:43:28;100915.66;;;22.28;83.88
71907;BME280;59781;52.090;5.030;2023-07-02T07:45:53;100919.44;;;21.70;84.97
71907;BME280;59781;52.090;5.030;2023-07-02T07:48:20;100925.47;;;21.95;78.79
71907;BME280;59781;52.090;5.030;2023-07-02T07:50:46;100925.66;;;22.05;79.23
71907;BME280;59781;52.090;5.030;2023-07-02T07:53:12;100921.50;;;22.03;82.46
71907;BME280;59781;52.090;5.030;2023-07-02T07:55:38;100921.78;;;21.90;85.46
71907;BME280;59781;52.090;5.030;2023-07-02T07:58:04;100928.03;;;22.02;77.29
71907;BME280;59781;52.090;5.030;2023-07-02T08:00:29;100921.53;;;22.65;73.99
71907;BME280;59781;52.090;5.030;2023-07-02T08:02:55;100929.81;;;22.37;75.31
71907;BME280;59781;52.090;5.030;2023-07-02T08:05:21;100929.84;;;21.68;77.89
71907;BME280;59781;52.090;5.030;2023-07-02T08:07:48;100945.25;;;21.97;73.76
71907;BME280;59781;52.090;5.030;2023-07-02T08:10:14;100930.59;;;22.32;69.88
71907;BME280;59781;52.090;5.030;2023-07-02T08:12:39;100930.69;;;22.54;67.85
71907;BME280;59781;52.090;5.030;2023-07-02T08:15:06;100930.06;;;22.35;66.83
71907;BME280;59781;52.090;5.030;2023-07-02T08:17:32;100931.81;;;22.86;67.03
71907;BME280;59781;52.090;5.030;2023-07-02T08:19:57;100935.97;;;22.27;71.46
71907;BME280;59781;52.090;5.030;2023-07-02T08:22:23;100941.31;;;22.33;71.94
71907;BME280;59781;52.090;5.030;2023-07-02T08:24:49;100934.41;;;22.48;71.83
71907;BME280;59781;52.090;5.030;2023-07-02T08:27:16;100947.59;;;20.83;82.00
71907;BME280;59781;52.090;5.030;2023-07-02T08:29:46;100944.28;;;21.52;81.94
71907;BME280;59781;52.090;5.030;2023-07-02T08:32:13;100944.00;;;22.17;79.80
71907;BME280;59781;52.090;5.030;2023-07-02T08:34:39;100943.81;;;21.55;74.74
71907;BME280;59781;52.090;5.030;2023-07-02T08:37:04;100939.09;;;22.64;70.53
71907;BME280;59781;52.090;5.030;2023-07-02T08:39:30;100935.50;;;22.47;74.64
71907;BME280;59781;52.090;5.030;2023-07-02T08:41:56;100940.25;;;21.83;81.38
71907;BME280;59781;52.090;5.030;2023-07-02T08:44:22;100953.72;;;21.96;76.46
71907;BME280;59781;52.090;5.030;2023-07-02T08:46:47;100946.09;;;23.22;68.32
71907;BME280;59781;52.090;5.030;2023-07-02T08:49:18;100941.31;;;23.73;68.22
71907;BME280;59781;52.090;5.030;2023-07-02T08:51:45;100947.63;;;22.51;69.96
71907;BME280;59781;52.090;5.030;2023-07-02T08:54:12;100937.16;;;23.32;66.87
71907;BME280;59781;52.090;5.030;2023-07-02T08:56:38;100943.19;;;24.16;65.71
71907;BME280;59781;52.090;5.030;2023-07-02T08:59:08;100952.91;;;24.78;60.07
71907;BME280;59781;52.090;5.030;2023-07-02T09:01:51;100946.66;;;23.41;65.04
71907;BME280;59781;52.090;5.030;2023-07-02T09:04:22;100956.06;;;22.78;65.19
71907;BME280;59781;52.090;5.030;2023-07-02T09:07:02;100948.50;;;24.23;62.30
71907;BME280;59781;52.090;5.030;2023-07-02T09:09:30;100959.66;;;21.64;62.54
71907;BME280;59781;52.090;5.030;2023-07-02T09:11:55;100958.44;;;23.03;65.48
71907;BME280;59781;52.090;5.030;2023-07-02T09:14:29;100953.25;;;23.06;58.76
71907;BME280;59781;52.090;5.030;2023-07-02T09:17:02;100966.19;;;22.15;59.86
71907;BME280;59781;52.090;5.030;2023-07-02T09:19:33;100955.75;;;23.25;60.84
71907;BME280;59781;52.090;5.030;2023-07-02T09:21:59;100951.84;;;22.87;59.60
71907;BME280;59781;52.090;5.030;2023-07-02T09:24:30;100953.94;;;22.51;60.29
71907;BME280;59781;52.090;5.030;2023-07-02T09:26:59;100969.75;;;23.06;63.52
71907;BME280;59781;52.090;5.030;2023-07-02T09:29:30;100953.09;;;23.90;58.68
71907;BME280;59781;52.090;5.030;2023-07-02T09:31:59;100964.84;;;22.46;59.01
71907;BME280;59781;52.090;5.030;2023-07-02T09:34:35;100970.25;;;21.26;62.20
71907;BME280;59781;52.090;5.030;2023-07-02T09:37:03;100960.88;;;22.54;57.21
71907;BME280;59781;52.090;5.030;2023-07-02T09:39:34;100969.97;;;23.77;59.32
71907;BME280;59781;52.090;5.030;2023-07-02T09:42:05;100969.66;;;22.84;62.33
71907;BME280;59781;52.090;5.030;2023-07-02T09:44:34;100960.25;;;23.14;62.11
71907;BME280;59781;52.090;5.030;2023-07-02T09:47:07;100959.69;;;22.95;64.75
71907;BME280;59781;52.090;5.030;2023-07-02T09:49:43;100954.72;;;24.13;55.13
71907;BME280;59781;52.090;5.030;2023-07-02T09:52:16;100945.09;;;24.16;55.96
71907;BME280;59781;52.090;5.030;2023-07-02T09:54:42;100951.13;;;24.13;56.39
71907;BME280;59781;52.090;5.030;2023-07-02T09:57:08;100952.47;;;24.32;54.02
71907;BME280;59781;52.090;5.030;2023-07-02T09:59:34;100949.88;;;25.11;49.42
71907;BME280;59781;52.090;5.030;2023-07-02T10:02:01;100955.25;;;22.03;52.20
71907;BME280;59781;52.090;5.030;2023-07-02T10:04:27;100967.66;;;22.35;52.64
71907;BME280;59781;52.090;5.030;2023-07-02T10:06:55;100969.97;;;22.26;50.89
71907;BME280;59781;52.090;5.030;2023-07-02T10:09:37;100975.25;;;21.64;54.31
71907;BME280;59781;52.090;5.030;2023-07-02T10:14:46;100974.25;;;23.12;54.73
71907;BME280;59781;52.090;5.030;2023-07-02T10:17:32;100982.41;;;22.17;58.33
71907;BME280;59781;52.090;5.030;2023-07-02T10:20:05;100985.00;;;21.83;57.28
71907;BME280;59781;52.090;5.030;2023-07-02T10:22:50;100972.59;;;22.95;56.89
71907;BME280;59781;52.090;5.030;2023-07-02T10:25:27;100980.94;;;22.71;59.33
71907;BME280;59781;52.090;5.030;2023-07-02T10:27:54;100984.22;;;21.36;59.97
71907;BME280;59781;52.090;5.030;2023-07-02T10:30:36;100985.63;;;21.38;61.55
71907;BME280;59781;52.090;5.030;2023-07-02T10:33:18;100994.09;;;22.00;60.79
71907;BME280;59781;52.090;5.030;2023-07-02T10:35:46;100985.38;;;22.72;55.59
71907;BME280;59781;52.090;5.030;2023-07-02T10:38:17;100997.09;;;22.11;58.17
71907;BME280;59781;52.090;5.030;2023-07-02T10:40:45;101001.69;;;22.22;57.30
71907;BME280;59781;52.090;5.030;2023-07-02T10:43:12;101004.81;;;22.25;58.18
71907;BME280;59781;52.090;5.030;2023-07-02T10:45:37;101002.34;;;22.41;60.33
71907;BME280;59781;52.090;5.030;2023-07-02T10:48:08;100995.09;;;24.08;56.26
71907;BME280;59781;52.090;5.030;2023-07-02T10:50:35;101001.09;;;23.61;56.78
71907;BME280;59781;52.090;5.030;2023-07-02T10:53:01;101006.81;;;22.30;59.41
71907;BME280;59781;52.090;5.030;2023-07-02T10:55:28;101012.66;;;22.33;59.53
71907;BME280;59781;52.090;5.030;2023-07-02T10:58:09;100997.84;;;21.01;60.08
71907;BME280;59781;52.090;5.030;2023-07-02T11:00:49;101007.28;;;20.63;62.88
71907;BME280;59781;52.090;5.030;2023-07-02T11:03:21;101017.28;;;20.57;62.68
71907;BME280;59781;52.090;5.030;2023-07-02T11:05:49;101001.72;;;21.58;56.84
71907;BME280;59781;52.090;5.030;2023-07-02T11:08:16;101000.56;;;22.92;54.10
71907;BME280;59781;52.090;5.030;2023-07-02T11:10:42;101013.47;;;22.63;56.39
71907;BME280;59781;52.090;5.030;2023-07-02T11:13:16;101014.69;;;22.26;53.74
71907;BME280;59781;52.090;5.030;2023-07-02T11:15:44;101009.63;;;22.92;54.97
71907;BME280;59781;52.090;5.030;2023-07-02T11:18:18;101004.69;;;23.28;53.09
71907;BME280;59781;52.090;5.030;2023-07-02T11:20:47;100999.50;;;24.09;50.13
71907;BME280;59781;52.090;5.030;2023-07-02T11:23:17;101011.44;;;23.20;49.02
71907;BME280;59781;52.090;5.030;2023-07-02T11:26:00;101004.47;;;22.96;49.69
71907;BME280;59781;52.090;5.030;2023-07-02T11:28:28;101016.66;;;22.02;51.79
71907;BME280;59781;52.090;5.030;2023-07-02T11:30:55;101015.53;;;21.28;54.83
71907;BME280;59781;52.090;5.030;2023-07-02T11:33:40;101006.09;;;21.71;54.74
71907;BME280;59781;52.090;5.030;2023-07-02T11:36:08;101006.47;;;21.51;54.62
71907;BME280;59781;52.090;5.030;2023-07-02T11:38:45;101006.31;;;22.61;51.78
71907;BME280;59781;52.090;5.030;2023-07-02T11:41:11;101011.00;;;22.21;53.89
71907;BME280;59781;52.090;5.030;2023-07-02T11:43:38;101018.78;;;22.52;56.86
71907;BME280;59781;52.090;5.030;2023-07-02T11:46:04;101020.81;;;22.45;54.26
71907;BME280;59781;52.090;5.030;2023-07-02T11:48:29;101020.69;;;22.52;56.60
71907;BME280;59781;52.090;5.030;2023-07-02T11:50:55;101009.41;;;23.66;51.96
71907;BME280;59781;52.090;5.030;2023-07-02T11:53:20;101014.03;;;24.75;50.81
71907;BME280;59781;52.090;5.030;2023-07-02T11:55:46;101009.72;;;25.16;48.27
71907;BME280;59781;52.090;5.030;2023-07-02T11:58:12;101001.28;;;25.28;48.45
71907;BME280;59781;52.090;5.030;2023-07-02T12:00:37;101007.28;;;25.62;47.49
71907;BME280;59781;52.090;5.030;2023-07-02T12:03:03;101015.34;;;24.99;42.98
71907;BME280;59781;52.090;5.030;2023-07-02T12:05:29;101022.34;;;24.53;43.85
71907;BME280;59781;52.090;5.030;2023-07-02T12:07:56;101024.47;;;23.80;45.67
71907;BME280;59781;52.090;5.030;2023-07-02T12:10:22;101022.59;;;22.97;49.44
71907;BME280;59781;52.090;5.030;2023-07-02T12:12:48;101018.63;;;23.21;48.85
71907;BME280;59781;52.090;5.030;2023-07-02T12:15:13;101037.75;;;22.99;49.69
71907;BME280;59781;52.090;5.030;2023-07-02T12:17:39;101037.59;;;22.32;49.83
71907;BME280;59781;52.090;5.030;2023-07-02T12:20:05;101039.47;;;22.43;48.25
71907;BME280;59781;52.090;5.030;2023-07-02T12:22:31;101041.81;;;22.11;51.39
71907;BME280;59781;52.090;5.030;2023-07-02T12:24:56;101037.44;;;23.63;48.52
71907;BME280;59781;52.090;5.030;2023-07-02T12:27:23;101032.69;;;23.41;51.59
71907;BME280;59781;52.090;5.030;2023-07-02T12:29:48;101042.72;;;22.57;50.46
71907;BME280;59781;52.090;5.030;2023-07-02T12:32:15;101039.97;;;21.65;51.78
71907;BME280;59781;52.090;5.030;2023-07-02T12:34:40;101047.66;;;22.15;52.12
71907;BME280;59781;52.090;5.030;2023-07-02T12:37:06;101044.19;;;22.19;52.17
71907;BME280;59781;52.090;5.030;2023-07-02T12:39:31;101048.56;;;22.60;48.74
71907;BME280;59781;52.090;5.030;2023-07-02T12:41:57;101046.94;;;23.94;48.72
71907;BME280;59781;52.090;5.030;2023-07-02T12:44:23;101046.09;;;23.71;46.39
71907;BME280;59781;52.090;5.030;2023-07-02T12:46:49;101047.19;;;25.12;43.70
71907;BME280;59781;52.090;5.030;2023-07-02T12:49:15;101031.06;;;24.23;45.06
71907;BME280;59781;52.090;5.030;2023-07-02T12:51:41;101044.31;;;24.75;48.38